CheckWX is a tool to help pilots better visualize weather data.  It is not intended as a substitute for an official pre-flight weather briefing.

06:26:56 UTC

LZIB METAR
M. R. Štefánik Airport
Bratislava, Slovakia (Slovak Republic)
Current

27 mins ago

LZIB 210600Z 12006KT 4000 BR BKN003 OVC020 10/10 Q1011 TEMPO BKN006 BKN009
Observed
Nov-21 @ 06:00 UTC
Wind
  • 120° at 6 KTS
Visibility
4,000 meters
Flight Rules
LIFR
Conditions
Mist
Cloud Levels
  • Broken at 300' AGL
  • Overcast at 2,000' AGL
Temperature
10°C / 50°F
Dewpoint
10°C / 50°F
Humidity
100%
Altimeter
29.85" Hg
Pressure
1010.92 hPa
Previous

57 mins ago

LZIB 210530Z 12006KT 4500 BR BKN004 OVC015 10/09 Q1011 TEMPO BKN006 BKN009
Observed
Nov-21 @ 05:30 UTC
Wind
  • 120° at 6 KTS
Visibility
4,500 meters
Flight Rules
LIFR
Conditions
Mist
Cloud Levels
  • Broken at 400' AGL
  • Overcast at 1,500' AGL
Temperature
10°C / 50°F
Dewpoint
C / 48°F
Humidity
94%
Altimeter
29.85" Hg
Pressure
1010.92 hPa
Previous

1 hour ago

LZIB 210508Z 12006KT 4500 BR FEW004 BKN005 BKN016 10/09 Q1011
Observed
Nov-21 @ 05:08 UTC
Wind
  • 120° at 6 KTS
Visibility
4,500 meters
Flight Rules
IFR
Conditions
Mist
Cloud Levels
  • Few at 400' AGL
  • Broken at 500' AGL
  • Broken at 1,600' AGL
Temperature
10°C / 50°F
Dewpoint
C / 48°F
Humidity
94%
Altimeter
29.85" Hg
Pressure
1010.92 hPa